Terminal Aerodrome Forecast
Issued by NWS

Home | Current Version | Previous Version | Text Only | Print | Product List | Glossary On
Versions: 1 2 3 4 5 6 7 8 9 10 11 12 13 14
943
FTUS44 KCRP 231745 CCA
TAFALI
TAF COR
KALI 231745Z 2318/2418 VRB03KT P6SM SCT040
     FM232000 09006KT P6SM VCTS BKN045CB
     FM232200 11012KT P6SM SCT050
     FM240300 16006KT P6SM SCT015 BKN250
     FM240900 VRB03KT P6SM BKN015
     FM241500 02007KT P6SM VCSH SCT030 PROB30 2415/2418 5SM TSRA
      BKN030CB=

USA.gov is the U.S. government's official web portal to all federal, state and local government web resources and services.